Time;durP1;ratioP1;P1;durP2;ratioP2;P2;SDS_P1;SDS_P2;PMS_P1;PMS_P2;Temp;Humidity;BMP_temperature;BMP_pressure;BME280_temperature;BME280_humidity;BME280_pressure;Samples;Min_cycle;Max_cycle;Signal;HPM_P1;HPM_P2
2024/04/10 00:01:04;;;;;;;2.85;1.48;;;9.40;99.90;;;;;;5347648;26;20092;-45
2024/04/10 00:03:31;;;;;;;0.82;0.82;;;9.40;99.90;;;;;;5347701;26;20123;-46
2024/04/10 00:06:06;;;;;;;6.55;1.48;;;9.30;99.90;;;;;;5347510;26;19996;-45
2024/04/10 00:08:32;;;;;;;7.28;1.02;;;9.30;99.90;;;;;;5346550;26;20000;-46
2024/04/10 00:11:00;;;;;;;2.10;0.88;;;9.20;99.90;;;;;;5377961;26;20032;-46
2024/04/10 00:13:26;;;;;;;4.85;1.20;;;9.20;99.90;;;;;;5378511;26;20328;-46
2024/04/10 00:15:58;;;;;;;4.00;0.90;;;9.30;99.90;;;;;;5378509;26;20000;-51
2024/04/10 00:18:24;;;;;;;3.15;1.15;;;9.20;99.90;;;;;;5347022;26;20347;-46
2024/04/10 00:20:49;;;;;;;3.28;1.10;;;9.20;99.90;;;;;;5378177;26;20028;-48
2024/04/10 00:23:15;;;;;;;3.38;1.17;;;9.20;99.90;;;;;;5382125;26;20341;-50
2024/04/10 00:25:41;;;;;;;1.85;0.95;;;9.10;99.90;;;;;;5381915;26;20073;-50
2024/04/10 00:28:06;;;;;;;5.18;1.23;;;9.10;99.90;;;;;;5350740;26;20434;-46
2024/04/10 00:30:32;;;;;;;6.05;1.05;;;9.10;99.90;;;;;;5350319;26;20004;-49
2024/04/10 00:32:57;;;;;;;1.10;0.95;;;9.00;99.90;;;;;;5350796;26;20455;-49
2024/04/10 00:35:23;;;;;;;1.52;0.98;;;9.00;99.90;;;;;;5381441;26;20459;-48
2024/04/10 00:37:48;;;;;;;3.50;1.00;;;9.10;99.90;;;;;;5350562;26;20007;-44
2024/04/10 00:40:14;;;;;;;4.68;1.00;;;9.10;99.90;;;;;;5350192;26;20000;-47
2024/04/10 00:42:39;;;;;;;3.15;1.23;;;9.10;99.90;;;;;;5381417;26;20344;-46
2024/04/10 00:45:05;;;;;;;6.57;1.45;;;9.00;99.90;;;;;;5381427;26;20360;-47
2024/04/10 00:47:31;;;;;;;5.25;1.08;;;9.00;99.90;;;;;;5381404;26;20000;-46
2024/04/10 00:49:57;;;;;;;4.03;1.00;;;8.90;99.90;;;;;;5381261;26;20019;-46
2024/04/10 00:52:23;;;;;;;1.50;0.90;;;8.80;99.90;;;;;;5381545;26;20008;-47
2024/04/10 00:54:49;;;;;;;4.97;1.52;;;8.80;99.90;;;;;;5381133;26;20470;-48
2024/04/10 00:57:14;;;;;;;1.73;1.20;;;8.70;99.90;;;;;;5381248;26;20004;-47
2024/04/10 00:59:40;;;;;;;4.35;1.17;;;8.70;99.90;;;;;;5349930;26;20012;-46
2024/04/10 01:02:06;;;;;;;1.67;0.95;;;8.70;99.90;;;;;;5381245;26;20561;-50
2024/04/10 01:04:32;;;;;;;3.78;1.92;;;8.70;99.90;;;;;;5380924;26;19996;-48
2024/04/10 01:06:58;;;;;;;5.22;1.20;;;8.60;99.90;;;;;;5381034;26;20358;-47
2024/04/10 01:09:23;;;;;;;3.35;1.23;;;8.60;99.90;;;;;;5348935;26;19996;-49
2024/04/10 01:11:49;;;;;;;6.50;2.10;;;8.50;99.90;;;;;;5381037;26;19996;-46
2024/04/10 01:14:16;;;;;;;4.65;1.08;;;8.60;99.90;;;;;;5380903;26;19996;-45
2024/04/10 01:16:42;;;;;;;8.40;1.20;;;8.60;99.90;;;;;;5349955;26;20007;-51
2024/04/10 01:19:08;;;;;;;6.55;1.75;;;8.50;99.90;;;;;;5349359;26;19996;-50
2024/04/10 01:21:34;;;;;;;4.65;1.00;;;8.50;99.90;;;;;;5349919;26;19996;-48
2024/04/10 01:23:59;;;;;;;7.30;1.50;;;8.50;99.90;;;;;;5380732;26;20026;-48
2024/04/10 01:26:25;;;;;;;7.78;1.50;;;8.50;99.90;;;;;;5380649;26;20348;-53
2024/04/10 01:28:50;;;;;;;1.83;1.05;;;8.50;99.90;;;;;;5380141;26;19996;-49
2024/04/10 01:31:16;;;;;;;3.63;1.33;;;8.50;99.90;;;;;;5349237;26;20007;-46
2024/04/10 01:33:41;;;;;;;6.80;1.42;;;8.40;99.90;;;;;;5349334;26;20023;-52
2024/04/10 01:36:07;;;;;;;7.20;1.35;;;8.40;99.90;;;;;;5349679;26;20359;-46
2024/04/10 01:38:33;;;;;;;3.63;1.25;;;8.50;99.90;;;;;;5380089;26;20394;-47
2024/04/10 01:40:59;;;;;;;6.15;1.33;;;8.50;99.90;;;;;;5380530;26;19997;-47
2024/04/10 01:43:24;;;;;;;6.60;1.15;;;8.40;99.90;;;;;;5380287;26;20003;-48
2024/04/10 01:45:50;;;;;;;3.53;1.40;;;8.40;99.90;;;;;;5380237;26;20463;-48
2024/04/10 01:48:16;;;;;;;4.00;1.27;;;8.40;99.90;;;;;;5380261;26;20020;-52
2024/04/10 01:50:42;;;;;;;2.53;1.52;;;8.30;99.90;;;;;;5380378;26;20012;-47
2024/04/10 01:53:08;;;;;;;4.93;1.55;;;8.30;99.90;;;;;;5380295;26;19996;-48
2024/04/10 01:55:33;;;;;;;2.03;1.10;;;8.30;99.90;;;;;;5380525;26;20011;-47
2024/04/10 01:57:59;;;;;;;9.13;1.40;;;8.30;99.90;;;;;;5380397;26;20011;-51
2024/04/10 02:00:25;;;;;;;3.08;1.25;;;8.30;99.90;;;;;;5380033;26;20003;-51
2024/04/10 02:02:51;;;;;;;7.28;1.58;;;8.30;99.90;;;;;;5380312;26;19992;-49
2024/04/10 02:05:16;;;;;;;5.82;1.35;;;8.20;99.90;;;;;;5349344;26;19992;-49
2024/04/10 02:07:42;;;;;;;5.55;2.13;;;8.20;99.90;;;;;;5379564;26;19992;-44
2024/04/10 02:10:08;;;;;;;3.75;1.52;;;8.20;99.90;;;;;;5379415;26;20000;-48
2024/04/10 02:12:33;;;;;;;1.92;1.17;;;8.20;99.90;;;;;;5380210;26;20000;-48
2024/04/10 02:14:59;;;;;;;5.55;1.30;;;8.10;99.90;;;;;;5349070;26;20011;-47
2024/04/10 02:17:24;;;;;;;5.82;1.17;;;8.10;99.90;;;;;;5349008;26;19996;-46
2024/04/10 02:19:50;;;;;;;4.07;1.67;;;8.10;99.90;;;;;;5379551;26;20000;-49
2024/04/10 02:22:16;;;;;;;3.63;1.23;;;8.00;99.90;;;;;;5380208;26;20048;-46
2024/04/10 02:24:42;;;;;;;4.43;1.05;;;7.90;99.90;;;;;;5379983;26;20007;-48
2024/04/10 02:27:07;;;;;;;4.97;1.67;;;7.90;99.90;;;;;;5348642;26;20015;-48
2024/04/10 02:29:33;;;;;;;9.10;1.77;;;7.90;99.90;;;;;;5379118;26;20372;-46
2024/04/10 02:31:59;;;;;;;9.23;1.88;;;7.80;99.90;;;;;;5379715;26;20070;-47
2024/04/10 02:34:25;;;;;;;4.97;1.70;;;7.90;99.90;;;;;;5348505;26;20472;-43
2024/04/10 02:36:51;;;;;;;3.58;1.52;;;7.90;99.90;;;;;;5379481;26;20004;-45
2024/04/10 02:39:17;;;;;;;2.90;1.35;;;7.80;99.90;;;;;;5379270;26;19996;-46
2024/04/10 02:41:42;;;;;;;4.78;1.77;;;7.80;99.90;;;;;;5379606;26;20004;-45
2024/04/10 02:44:08;;;;;;;3.47;1.73;;;7.80;99.90;;;;;;5378518;26;20011;-46
2024/04/10 02:46:33;;;;;;;5.30;1.30;;;7.80;99.90;;;;;;5379041;26;20015;-45
2024/04/10 02:48:59;;;;;;;2.75;1.20;;;7.80;99.90;;;;;;5379260;26;20000;-48
2024/04/10 02:51:24;;;;;;;8.35;1.40;;;7.70;99.90;;;;;;5379637;26;20378;-47
2024/04/10 02:53:50;;;;;;;3.63;1.50;;;7.80;99.90;;;;;;5379338;26;19996;-46
2024/04/10 02:56:15;;;;;;;4.57;1.23;;;7.80;99.90;;;;;;5379319;26;20029;-48
2024/04/10 02:58:41;;;;;;;10.05;2.10;;;7.80;99.90;;;;;;5379089;26;20006;-47
2024/04/10 03:01:11;;;;;;;5.55;1.63;;;7.90;99.90;;;;;;5379495;26;20010;-48
2024/04/10 03:03:37;;;;;;;3.50;2.08;;;8.00;99.90;;;;;;5348441;26;19997;-48
2024/04/10 03:06:04;;;;;;;7.07;1.33;;;8.00;99.90;;;;;;5379346;26;20007;-48
2024/04/10 03:08:34;;;;;;;4.45;1.10;;;8.00;99.90;;;;;;5378777;26;20007;-44
2024/04/10 03:11:00;;;;;;;4.88;1.48;;;7.90;99.90;;;;;;5379393;26;20360;-47
2024/04/10 03:13:25;;;;;;;9.05;2.00;;;8.00;99.90;;;;;;5348548;26;20000;-46
2024/04/10 03:15:51;;;;;;;5.40;1.80;;;7.90;99.90;;;;;;5379105;26;20007;-46
2024/04/10 03:18:17;;;;;;;1.67;1.10;;;7.90;99.90;;;;;;5379056;26;20000;-46
2024/04/10 03:20:43;;;;;;;3.72;1.35;;;7.90;99.90;;;;;;5347958;26;19997;-45
2024/04/10 03:23:09;;;;;;;5.30;1.50;;;7.90;99.90;;;;;;5379309;26;19996;-47
2024/04/10 03:25:34;;;;;;;4.35;1.27;;;7.90;99.90;;;;;;5378937;26;20011;-48
2024/04/10 03:28:00;;;;;;;13.18;2.25;;;7.90;99.90;;;;;;5378926;26;19997;-46
2024/04/10 03:30:26;;;;;;;4.88;1.10;;;7.90;99.90;;;;;;5348041;26;20014;-47
2024/04/10 03:32:52;;;;;;;13.27;2.15;;;7.90;99.90;;;;;;5379013;26;20028;-51
2024/04/10 03:35:18;;;;;;;6.25;1.48;;;7.90;99.90;;;;;;5378705;26;20513;-47
2024/04/10 03:37:45;;;;;;;5.30;1.35;;;7.90;99.90;;;;;;5378874;26;20000;-46
2024/04/10 03:40:10;;;;;;;5.30;1.40;;;7.80;99.90;;;;;;5378507;26;19997;-49
2024/04/10 03:42:36;;;;;;;3.53;1.48;;;7.80;99.90;;;;;;5378936;26;20007;-49
2024/04/10 03:45:03;;;;;;;7.20;1.88;;;7.70;99.90;;;;;;5348176;26;20386;-49
2024/04/10 03:47:29;;;;;;;6.70;1.60;;;7.70;99.90;;;;;;5347700;26;19993;-47
2024/04/10 03:49:54;;;;;;;10.73;1.95;;;7.50;99.90;;;;;;5378265;26;20007;-51
2024/04/10 03:52:20;;;;;;;6.47;2.45;;;7.60;99.90;;;;;;5378727;26;20000;-47
2024/04/10 03:54:45;;;;;;;6.07;1.88;;;7.40;99.90;;;;;;5347692;26;20000;-46
2024/04/10 03:57:11;;;;;;;8.20;1.85;;;7.50;99.90;;;;;;5351239;26;20007;-50
2024/04/10 03:59:36;;;;;;;7.18;1.80;;;7.50;99.90;;;;;;5350575;26;20376;-47
2024/04/10 04:02:02;;;;;;;6.38;1.92;;;7.40;99.90;;;;;;5382200;26;20011;-49
2024/04/10 04:04:28;;;;;;;6.57;1.77;;;7.50;99.90;;;;;;5382486;26;20557;-46
2024/04/10 04:06:53;;;;;;;8.48;2.40;;;7.40;99.90;;;;;;5382518;26;20028;-46
2024/04/10 04:09:19;;;;;;;9.10;1.67;;;7.40;99.90;;;;;;5350799;26;20000;-48
2024/04/10 04:11:44;;;;;;;5.85;1.73;;;7.50;99.90;;;;;;5351788;26;20011;-48
2024/04/10 04:14:10;;;;;;;7.60;1.58;;;7.50;99.90;;;;;;5350895;26;19996;-46
2024/04/10 04:16:35;;;;;;;8.60;2.00;;;7.50;99.90;;;;;;5381715;26;20000;-49
2024/04/10 04:19:01;;;;;;;5.18;2.08;;;7.50;99.90;;;;;;5350513;26;19996;-47
2024/04/10 04:21:27;;;;;;;4.15;2.08;;;7.50;99.90;;;;;;5381910;26;20000;-46
2024/04/10 04:23:53;;;;;;;5.05;1.60;;;7.50;99.90;;;;;;5382073;26;20000;-45
2024/04/10 04:26:19;;;;;;;4.57;1.95;;;7.50;99.90;;;;;;5381995;26;20046;-45
2024/04/10 04:28:46;;;;;;;5.20;2.40;;;7.40;99.90;;;;;;5381438;26;20008;-47
2024/04/10 04:31:14;;;;;;;7.38;2.03;;;7.40;99.90;;;;;;5381827;26;19996;-45
2024/04/10 04:33:40;;;;;;;4.47;1.73;;;7.30;99.90;;;;;;5386430;26;20000;-45
2024/04/10 04:36:07;;;;;;;11.32;2.95;;;7.30;99.90;;;;;;5355874;26;20007;-46
2024/04/10 04:38:33;;;;;;;3.72;1.88;;;7.30;99.90;;;;;;5354488;26;20008;-46
2024/04/10 04:40:59;;;;;;;7.18;1.60;;;7.40;99.90;;;;;;5382254;26;20423;-48
2024/04/10 04:43:25;;;;;;;4.70;2.00;;;7.40;99.90;;;;;;5381638;26;20000;-50
2024/04/10 04:45:51;;;;;;;3.45;1.65;;;7.30;99.90;;;;;;5381726;26;20066;-45
2024/04/10 04:48:16;;;;;;;6.90;2.25;;;7.40;99.90;;;;;;5380956;26;19997;-48
2024/04/10 04:50:42;;;;;;;7.65;2.10;;;7.40;99.90;;;;;;5380970;26;20000;-45
2024/04/10 04:53:09;;;;;;;8.20;2.10;;;7.30;99.90;;;;;;5381634;26;20012;-49
2024/04/10 04:55:35;;;;;;;7.50;1.98;;;7.30;99.90;;;;;;5350055;26;20070;-49
2024/04/10 04:58:01;;;;;;;8.35;2.45;;;7.30;99.90;;;;;;5350034;26;20000;-50
2024/04/10 05:00:26;;;;;;;8.02;1.70;;;7.20;99.90;;;;;;5380997;26;20011;-45
2024/04/10 05:02:52;;;;;;;9.30;2.85;;;7.20;99.90;;;;;;5381245;26;20004;-46
2024/04/10 05:05:18;;;;;;;5.05;2.22;;;7.20;99.90;;;;;;5381178;26;20000;-45
2024/04/10 05:07:45;;;;;;;6.60;1.80;;;7.20;99.90;;;;;;5380200;26;19996;-45
2024/04/10 05:10:11;;;;;;;7.65;2.83;;;7.20;99.90;;;;;;5380198;26;20463;-46
2024/04/10 05:12:38;;;;;;;5.53;2.00;;;7.20;99.90;;;;;;5380812;26;20339;-48
2024/04/10 05:15:06;;;;;;;7.47;1.83;;;7.30;99.90;;;;;;5380742;26;20431;-47
2024/04/10 05:17:31;;;;;;;10.40;2.53;;;7.30;99.90;;;;;;5380705;26;20397;-44
2024/04/10 05:19:57;;;;;;;6.10;1.90;;;7.30;99.90;;;;;;5349827;26;19996;-45
2024/04/10 05:22:23;;;;;;;11.20;2.50;;;7.40;99.90;;;;;;5380929;26;20010;-49
2024/04/10 05:24:48;;;;;;;4.63;1.77;;;7.50;99.90;;;;;;5380582;26;20000;-47
2024/04/10 05:27:26;;;;;;;7.78;3.15;;;7.50;99.90;;;;;;5380654;26;19996;-47
2024/04/10 05:30:00;;;;;;;6.38;2.20;;;7.60;99.90;;;;;;5349575;26;20047;-46
2024/04/10 05:32:26;;;;;;;5.60;2.60;;;7.80;99.90;;;;;;5349816;26;20111;-45
2024/04/10 05:34:53;;;;;;;4.55;2.10;;;7.70;99.90;;;;;;5380490;26;20463;-49
2024/04/10 05:37:19;;;;;;;6.32;2.10;;;7.80;99.90;;;;;;5380356;26;20020;-46
2024/04/10 05:39:45;;;;;;;7.03;2.40;;;7.70;99.90;;;;;;5349437;26;20000;-43
2024/04/10 05:42:10;;;;;;;7.32;2.42;;;7.70;99.90;;;;;;5349597;26;20364;-47
2024/04/10 05:44:36;;;;;;;10.82;2.75;;;7.70;99.90;;;;;;5349611;26;20385;-45
2024/04/10 05:47:02;;;;;;;5.15;2.05;;;7.80;99.90;;;;;;5380637;26;20000;-48
2024/04/10 05:49:30;;;;;;;8.63;2.72;;;7.80;99.90;;;;;;5379867;26;20000;-45
2024/04/10 05:51:57;;;;;;;8.32;2.60;;;7.80;99.90;;;;;;5380414;26;20062;-45
2024/04/10 05:54:23;;;;;;;10.73;3.50;;;7.90;99.90;;;;;;5380391;26;20143;-47
2024/04/10 05:56:49;;;;;;;7.70;2.30;;;8.00;99.90;;;;;;5380775;26;20372;-52
2024/04/10 05:59:14;;;;;;;5.60;3.35;;;8.20;99.90;;;;;;5380427;26;20074;-47
2024/04/10 06:01:40;;;;;;;7.75;2.30;;;8.30;99.90;;;;;;5380196;26;20061;-44
2024/04/10 06:04:06;;;;;;;8.23;2.83;;;8.40;99.90;;;;;;5379942;26;20010;-46
2024/04/10 06:06:32;;;;;;;10.68;3.00;;;8.50;99.90;;;;;;5348771;26;19996;-47
2024/04/10 06:08:57;;;;;;;9.35;3.08;;;8.50;99.90;;;;;;5378495;26;20347;-52
2024/04/10 06:11:27;;;;;;;7.93;2.22;;;8.60;99.90;;;;;;5379581;26;20000;-45
2024/04/10 06:13:53;;;;;;;5.38;2.53;;;8.90;99.90;;;;;;5379820;26;20459;-43
2024/04/10 06:16:19;;;;;;;9.75;3.25;;;9.40;99.90;;;;;;5380349;26;20000;-47
2024/04/10 06:18:44;;;;;;;9.30;2.70;;;9.80;99.90;;;;;;5377697;26;20014;-49
2024/04/10 06:21:10;;;;;;;7.63;2.75;;;10.10;99.90;;;;;;5349029;26;20000;-48
2024/04/10 06:23:36;;;;;;;6.93;2.50;;;10.40;99.90;;;;;;5349428;26;20004;-47
2024/04/10 06:26:02;;;;;;;6.65;2.72;;;10.70;99.90;;;;;;5380533;26;20706;-47
2024/04/10 06:28:28;;;;;;;8.35;1.92;;;11.10;99.90;;;;;;5379609;26;20044;-50
2024/04/10 06:31:04;;;;;;;5.50;2.60;;;11.60;99.90;;;;;;5378774;26;20001;-48
2024/04/10 06:33:30;;;;;;;5.03;1.90;;;12.20;99.90;;;;;;5379436;26;20012;-48
2024/04/10 06:36:03;;;;;;;5.85;1.95;;;12.50;99.90;;;;;;5379845;26;20004;-50
2024/04/10 06:38:29;;;;;;;5.55;2.40;;;12.90;99.90;;;;;;5348757;26;20007;-52
2024/04/10 06:40:56;;;;;;;6.35;1.83;;;13.40;99.90;;;;;;5378680;26;20007;-52
2024/04/10 06:43:22;;;;;;;6.43;1.77;;;14.20;99.90;;;;;;5379574;26;19996;-51
2024/04/10 06:45:58;;;;;;;5.85;2.33;;;14.30;99.90;;;;;;5378827;26;20014;-52
2024/04/10 06:48:24;;;;;;;7.43;2.25;;;14.40;99.90;;;;;;5378841;26;19996;-50
2024/04/10 06:50:59;;;;;;;9.02;2.10;;;14.50;99.90;;;;;;5378873;26;20077;-49
2024/04/10 06:53:25;;;;;;;11.07;1.80;;;15.50;99.90;;;;;;5379940;26;20485;-53
2024/04/10 06:55:57;;;;;;;9.07;1.85;;;15.90;99.90;;;;;;5378258;26;19997;-55
2024/04/10 06:58:24;;;;;;;5.00;1.70;;;17.00;98.60;;;;;;5379081;26;20418;-52
2024/04/10 07:01:02;;;;;;;8.77;1.90;;;17.80;96.80;;;;;;5380003;26;20520;-50
2024/04/10 07:03:28;;;;;;;8.93;1.70;;;18.00;96.90;;;;;;5379379;26;20004;-53
2024/04/10 07:06:10;;;;;;;10.73;1.70;;;18.90;96.00;;;;;;5379716;26;20045;-49
2024/04/10 07:08:42;;;;;;;5.80;2.25;;;19.90;94.40;;;;;;5376837;26;20077;-54
2024/04/10 07:11:14;;;;;;;13.00;2.30;;;20.00;93.00;;;;;;5378470;26;20033;-51
2024/04/10 07:13:45;;;;;;;8.52;1.92;;;19.70;93.40;;;;;;5378954;26;20351;-53
2024/04/10 07:16:11;;;;;;;6.20;1.55;;;19.40;93.60;;;;;;5377314;26;20316;-52
2024/04/10 07:18:37;;;;;;;6.55;1.85;;;19.90;92.90;;;;;;5378596;26;20011;-53
2024/04/10 07:21:04;;;;;;;13.80;2.92;;;20.20;91.80;;;;;;5378532;26;20316;-53
2024/04/10 07:23:31;;;;;;;7.35;1.67;;;20.20;91.40;;;;;;5378973;26;20430;-51
2024/04/10 07:26:26;;;;;;;7.75;1.80;;;20.50;91.40;;;;;;5347403;26;19997;-54
2024/04/10 07:28:55;;;;;;;8.23;2.37;;;21.20;90.20;;;;;;5362939;26;20000;-63
2024/04/10 07:31:28;;;;;;;6.53;1.67;;;21.80;88.50;;;;;;5351626;26;20268;-60
2024/04/10 07:33:54;;;;;;;5.00;1.58;;;22.30;86.90;;;;;;5384403;26;20000;-55
2024/04/10 07:36:21;;;;;;;7.07;1.90;;;23.00;85.80;;;;;;5384294;26;20010;-59
2024/04/10 07:38:48;;;;;;;5.13;1.83;;;23.60;82.20;;;;;;5382727;26;20012;-57
2024/04/10 07:41:14;;;;;;;7.53;1.70;;;23.50;80.50;;;;;;5386465;26;20036;-58
2024/04/10 07:43:41;;;;;;;6.78;1.83;;;23.40;81.10;;;;;;5351021;26;20005;-60
2024/04/10 07:46:07;;;;;;;9.43;3.15;;;24.20;79.20;;;;;;5386524;26;20077;-55
2024/04/10 07:48:33;;;;;;;10.23;1.95;;;24.30;78.70;;;;;;5381945;26;20347;-54
2024/04/10 07:51:01;;;;;;;8.90;2.55;;;24.10;79.10;;;;;;5381746;26;20039;-51
2024/04/10 07:53:27;;;;;;;6.20;2.25;;;24.30;77.50;;;;;;5381454;26;20012;-55
2024/04/10 07:55:53;;;;;;;5.00;1.98;;;24.20;76.80;;;;;;5383028;26;20011;-53
2024/04/10 07:58:18;;;;;;;7.75;1.92;;;24.80;76.20;;;;;;5381281;26;20012;-52
2024/04/10 08:00:44;;;;;;;7.25;1.92;;;25.10;74.90;;;;;;5381077;26;20015;-52
2024/04/10 08:03:10;;;;;;;7.18;2.20;;;25.20;74.40;;;;;;5381100;26;20040;-52
2024/04/10 08:05:35;;;;;;;9.02;1.90;;;25.10;73.30;;;;;;5382968;26;20076;-56
2024/04/10 08:08:01;;;;;;;9.18;2.83;;;24.60;72.70;;;;;;5384801;26;20000;-51
2024/04/10 08:10:27;;;;;;;10.07;2.40;;;;;;;;;;5381302;26;20070;-50
2024/04/10 08:12:54;;;;;;;5.93;1.88;;;24.60;72.40;;;;;;5380795;26;20011;-51
2024/04/10 08:15:21;;;;;;;6.88;2.00;;;25.10;72.50;;;;;;5382127;26;20000;-49
2024/04/10 08:17:48;;;;;;;6.88;1.65;;;25.00;72.50;;;;;;5380846;26;20028;-51
2024/04/10 08:20:13;;;;;;;6.25;2.22;;;25.60;70.40;;;;;;5380726;26;20004;-53
2024/04/10 08:22:39;;;;;;;8.35;3.10;;;25.30;70.90;;;;;;5380938;26;20521;-51
2024/04/10 08:25:05;;;;;;;13.32;2.10;;;;;;;;;;5382618;26;20366;-56
2024/04/10 08:27:30;;;;;;;7.63;1.83;;;26.50;69.20;;;;;;5380064;26;19996;-52
2024/04/10 08:29:56;;;;;;;9.23;2.28;;;26.10;69.10;;;;;;5380972;26;20084;-51
2024/04/10 08:32:22;;;;;;;5.38;2.13;;;;;;;;;;5384676;26;20004;-55
2024/04/10 08:34:47;;;;;;;8.55;2.30;;;25.50;68.70;;;;;;5385873;26;20010;-53
2024/04/10 08:37:13;;;;;;;7.15;2.17;;;25.90;69.10;;;;;;5385110;26;20000;-53
2024/04/10 08:39:38;;;;;;;6.35;1.65;;;25.50;68.20;;;;;;5384448;26;20359;-50
2024/04/10 08:42:04;;;;;;;6.25;2.30;;;24.60;68.20;;;;;;5396264;26;20470;-54
2024/04/10 08:44:31;;;;;;;6.28;2.05;;;23.90;69.80;;;;;;5353032;26;20004;-55
2024/04/10 08:46:58;;;;;;;7.70;1.95;;;24.60;69.80;;;;;;5383635;26;20004;-54
2024/04/10 08:49:24;;;;;;;5.57;1.95;;;24.70;70.30;;;;;;5385349;26;20446;-52
2024/04/10 08:51:51;;;;;;;4.30;1.83;;;25.20;68.30;;;;;;5383226;26;20000;-54
2024/04/10 08:54:19;;;;;;;7.57;2.30;;;24.80;67.40;;;;;;5380542;26;20000;-53
2024/04/10 08:56:45;;;;;;;10.55;2.80;;;24.50;69.10;;;;;;5380585;26;20356;-52
2024/04/10 08:59:11;;;;;;;9.93;3.17;;;24.40;68.80;;;;;;5379812;26;19996;-49
2024/04/10 09:01:37;;;;;;;7.03;1.67;;;24.10;69.40;;;;;;5398932;26;20010;-52
2024/04/10 09:04:14;;;;;;;6.93;2.03;;;23.80;70.30;;;;;;5380874;26;20008;-49
2024/04/10 09:06:40;;;;;;;10.57;2.35;;;24.00;70.70;;;;;;5380772;26;20015;-54
2024/04/10 09:09:07;;;;;;;6.93;2.15;;;24.40;70.00;;;;;;5380022;26;19996;-51
2024/04/10 09:11:33;;;;;;;6.03;2.33;;;24.10;69.80;;;;;;5380723;26;20016;-53
2024/04/10 09:14:11;;;;;;;7.03;2.15;;;23.50;70.40;;;;;;5381039;26;20000;-50
2024/04/10 09:16:37;;;;;;;5.88;1.80;;;23.00;71.60;;;;;;5381027;26;20529;-52
2024/04/10 09:19:16;;;;;;;5.55;2.03;;;22.10;72.70;;;;;;5380324;26;20012;-54
2024/04/10 09:21:55;;;;;;;6.32;1.85;;;21.00;75.10;;;;;;5380966;26;20011;-54
2024/04/10 09:24:25;;;;;;;6.55;1.80;;;20.10;75.80;;;;;;5381100;26;20024;-54
2024/04/10 09:26:51;;;;;;;6.35;2.22;;;19.80;78.10;;;;;;5381147;26;20007;-52
2024/04/10 09:29:24;;;;;;;4.85;1.58;;;19.40;79.70;;;;;;5380549;26;20039;-50
2024/04/10 09:31:51;;;;;;;11.30;2.83;;;18.80;81.60;;;;;;5380866;26;20337;-49
2024/04/10 09:34:20;;;;;;;7.22;3.75;;;18.70;83.40;;;;;;5380460;26;19996;-47
2024/04/10 09:36:46;;;;;;;5.13;2.83;;;18.80;83.60;;;;;;5380687;26;19996;-48
2024/04/10 09:39:12;;;;;;;11.27;2.50;;;18.80;82.10;;;;;;5380070;26;20007;-60
2024/04/10 09:41:44;;;;;;;6.40;2.30;;;18.90;82.90;;;;;;5399470;26;20011;-50
2024/04/10 09:44:10;;;;;;;5.85;1.92;;;18.70;82.80;;;;;;5416077;26;19996;-51
2024/04/10 09:46:38;;;;;;;8.40;2.50;;;18.70;82.80;;;;;;5416072;26;20038;-47
2024/04/10 09:49:11;;;;;;;7.70;2.03;;;18.90;82.30;;;;;;5415547;26;20416;-54
2024/04/10 09:51:39;;;;;;;10.60;2.92;;;18.90;82.10;;;;;;5415825;26;20393;-50
2024/04/10 09:54:07;;;;;;;7.38;1.98;;;19.10;82.90;;;;;;5415797;26;19996;-48
2024/04/10 09:56:35;;;;;;;8.00;2.17;;;19.30;83.70;;;;;;5415839;26;20000;-47
2024/04/10 09:59:01;;;;;;;8.73;2.35;;;19.00;80.90;;;;;;5415460;26;20006;-47
2024/04/10 10:01:27;;;;;;;11.98;2.58;;;19.10;82.20;;;;;;5415187;26;20074;-49
2024/04/10 10:03:56;;;;;;;9.38;2.55;;;19.00;81.90;;;;;;5384050;26;20007;-47
2024/04/10 10:06:28;;;;;;;9.80;2.20;;;18.80;82.60;;;;;;5384349;26;20006;-53
2024/04/10 10:08:54;;;;;;;6.70;2.00;;;18.30;84.90;;;;;;5383936;26;20008;-50
2024/04/10 10:11:20;;;;;;;6.95;2.25;;;18.00;82.60;;;;;;5414964;26;20002;-48
2024/04/10 10:13:56;;;;;;;7.47;2.17;;;17.90;84.90;;;;;;5415530;26;20007;-51
2024/04/10 10:16:26;;;;;;;10.63;3.22;;;17.90;86.50;;;;;;5415254;26;19995;-51
2024/04/10 10:18:56;;;;;;;6.28;1.77;;;18.00;84.10;;;;;;5415025;26;19999;-50
2024/04/10 10:21:22;;;;;;;8.32;2.05;;;17.70;84.70;;;;;;5415593;26;20076;-50
2024/04/10 10:23:56;;;;;;;9.27;2.28;;;17.10;85.10;;;;;;5382817;26;20003;-48
2024/04/10 10:26:22;;;;;;;10.80;2.60;;;17.40;87.00;;;;;;5383723;26;20000;-51
2024/04/10 10:28:48;;;;;;;11.02;2.13;;;17.60;87.00;;;;;;5414290;26;19996;-48
2024/04/10 10:31:19;;;;;;;7.63;2.08;;;17.80;85.00;;;;;;5415187;26;20007;-50
2024/04/10 10:33:45;;;;;;;4.90;1.48;;;18.00;83.30;;;;;;5408051;26;20008;-50
2024/04/10 10:36:11;;;;;;;6.88;1.98;;;18.20;82.50;;;;;;5384419;26;20024;-47
2024/04/10 10:38:37;;;;;;;5.35;1.70;;;18.20;83.80;;;;;;5383540;26;20013;-47
2024/04/10 10:41:10;;;;;;;6.85;2.90;;;18.40;85.30;;;;;;5369486;26;20015;-47
2024/04/10 10:43:39;;;;;;;13.15;3.42;;;18.40;85.80;;;;;;5362440;26;20012;-49
2024/04/10 10:46:11;;;;;;;6.43;1.80;;;18.20;84.20;;;;;;5392509;26;20379;-51
2024/04/10 10:48:36;;;;;;;4.20;1.77;;;18.20;83.80;;;;;;5394521;26;20000;-48
2024/04/10 10:51:02;;;;;;;4.32;2.10;;;18.20;83.40;;;;;;5397771;26;20010;-47
2024/04/10 10:53:28;;;;;;;74.00;41.80;;;18.10;83.40;;;;;;5397121;26;20000;-52
2024/04/10 10:55:55;;;;;;;8.57;4.80;;;18.10;82.60;;;;;;5399286;26;20000;-54
2024/04/10 10:58:22;;;;;;;8.98;2.10;;;18.00;81.20;;;;;;5414806;26;20083;-48
2024/04/10 11:00:48;;;;;;;9.05;2.03;;;17.80;81.60;;;;;;5399226;26;20008;-49
2024/04/10 11:03:17;;;;;;;6.80;2.25;;;17.40;82.80;;;;;;5395052;26;20528;-49
2024/04/10 11:05:44;;;;;;;3.75;1.63;;;17.10;85.10;;;;;;5396193;26;20011;-49
2024/04/10 11:08:09;;;;;;;4.50;1.77;;;17.00;85.60;;;;;;5366008;26;20004;-54
2024/04/10 11:10:35;;;;;;;6.05;1.42;;;16.70;84.60;;;;;;5413806;26;20005;-54
2024/04/10 11:13:02;;;;;;;3.80;1.95;;;16.50;83.30;;;;;;5414466;26;20011;-52
2024/04/10 11:15:29;;;;;;;6.85;1.95;;;16.40;85.00;;;;;;5382457;26;20473;-52
2024/04/10 11:18:04;;;;;;;5.65;1.75;;;16.30;85.80;;;;;;5414193;26;20026;-55
2024/04/10 11:20:30;;;;;;;;;;;16.50;86.80;;;;;;5414552;26;19995;-48
2024/04/10 11:23:00;;;;;;;5.88;1.50;;;16.50;87.20;;;;;;5414608;26;19932;-55
2024/04/10 11:25:25;;;;;;;4.32;1.80;;;16.40;86.60;;;;;;5414363;26;20011;-56
2024/04/10 11:27:51;;;;;;;5.97;1.63;;;16.50;85.20;;;;;;5414239;26;20094;-55
2024/04/10 11:30:16;;;;;;;5.07;1.92;;;16.50;84.10;;;;;;5413827;26;20006;-55
2024/04/10 11:32:42;;;;;;;3.28;1.60;;;16.50;83.50;;;;;;5414154;26;19999;-56
2024/04/10 11:35:13;;;;;;;3.03;1.50;;;16.40;82.80;;;;;;5414003;26;20446;-55
2024/04/10 11:37:39;;;;;;;6.18;1.40;;;16.40;82.10;;;;;;5414149;26;20018;-53
2024/04/10 11:40:11;;;;;;;4.00;1.42;;;16.30;83.50;;;;;;5382371;26;20010;-55
2024/04/10 11:42:40;;;;;;;7.57;1.67;;;16.20;83.00;;;;;;5414160;26;20435;-49
2024/04/10 11:45:09;;;;;;;4.78;1.85;;;16.30;86.20;;;;;;5413575;26;19991;-51
2024/04/10 11:47:36;;;;;;;2.45;1.50;;;16.40;85.40;;;;;;5413892;26;20000;-51
2024/04/10 11:50:04;;;;;;;6.88;1.98;;;16.40;84.60;;;;;;5413552;26;20319;-53
2024/04/10 11:52:30;;;;;;;4.78;1.77;;;16.30;85.40;;;;;;5413689;26;20064;-50
2024/04/10 11:54:57;;;;;;;2.53;1.50;;;16.30;85.70;;;;;;5382538;26;20008;-52
2024/04/10 11:57:23;;;;;;;40.85;22.60;;;16.10;85.00;;;;;;5381429;21;20016;-60
2024/04/10 11:59:48;;;;;;;7.60;2.80;;;16.20;83.20;;;;;;5342615;26;20001;-59
2024/04/10 12:02:14;;;;;;;6.43;2.72;;;16.10;84.40;;;;;;5370820;26;20459;-57
2024/04/10 12:04:40;;;;;;;5.65;2.35;;;16.10;84.40;;;;;;5341968;26;19997;-59
2024/04/10 12:07:05;;;;;;;4.90;1.45;;;16.10;83.70;;;;;;5371171;26;19989;-58
2024/04/10 12:09:31;;;;;;;4.22;1.88;;;16.00;85.00;;;;;;5343567;26;20001;-57
2024/04/10 12:11:56;;;;;;;9.82;1.80;;;16.00;85.30;;;;;;5370818;26;19993;-58
2024/04/10 12:14:22;;;;;;;6.22;2.13;;;16.10;83.30;;;;;;5341209;26;20749;-54
2024/04/10 12:16:47;;;;;;;1.42;1.33;;;16.00;83.30;;;;;;5343443;26;20005;-59
2024/04/10 12:19:13;;;;;;;4.22;1.63;;;15.90;82.40;;;;;;5346469;26;20004;-59
2024/04/10 12:21:38;;;;;;;3.92;1.10;;;15.90;83.00;;;;;;5345105;26;20448;-57
2024/04/10 12:24:04;;;;;;;5.70;1.75;;;16.00;83.20;;;;;;5346560;26;20007;-57
2024/04/10 12:26:33;;;;;;;3.60;1.20;;;16.20;82.70;;;;;;5346309;26;20008;-57
2024/04/10 12:28:59;;;;;;;4.57;1.30;;;16.30;82.10;;;;;;5346335;26;20012;-59
2024/04/10 12:31:25;;;;;;;10.15;2.00;;;16.30;80.90;;;;;;5346863;26;20422;-58
2024/04/10 12:33:51;;;;;;;5.05;1.10;;;16.40;81.40;;;;;;5346739;26;20043;-58
2024/04/10 12:39:01;;;;;;;2.78;1.13;;;16.30;80.70;;;;;;5346347;26;20011;-57
2024/04/10 12:41:27;;;;;;;5.38;1.30;;;16.20;81.50;;;;;;5344614;26;20007;-59
2024/04/10 12:43:54;;;;;;;7.03;1.50;;;16.00;81.30;;;;;;5346648;26;20000;-58
2024/04/10 12:46:21;;;;;;;3.72;1.40;;;15.80;80.40;;;;;;5346306;26;20001;-58
2024/04/10 12:48:47;;;;;;;13.30;6.82;;;15.90;81.20;;;;;;5346140;26;20091;-59
2024/04/10 12:51:13;;;;;;;30.55;15.93;;;16.10;80.40;;;;;;5346630;26;20411;-59
2024/04/10 12:53:38;;;;;;;46.22;26.02;;;16.20;78.40;;;;;;5346215;26;19996;-58